createdAt,value
2022-11-03T00:01:40.756Z,98377.91
2022-11-03T00:04:09.742Z,98377.41
2022-11-03T00:06:37.973Z,98370.22
2022-11-03T00:09:08.688Z,98369.72
2022-11-03T00:11:37.938Z,98370.06
2022-11-03T00:14:06.414Z,98365.88
2022-11-03T00:16:34.266Z,98359.19
2022-11-03T00:19:01.782Z,98357.22
2022-11-03T00:21:29.885Z,98359.19
2022-11-03T00:23:57.650Z,98359.88
2022-11-03T00:26:28.558Z,98356.03
2022-11-03T00:28:57.717Z,98357.03
2022-11-03T00:31:27.375Z,98357.34
2022-11-03T00:33:56.095Z,98358.34
2022-11-03T00:36:25.569Z,98352.69
2022-11-03T00:38:53.108Z,98347.38
2022-11-03T00:41:22.193Z,98340.31
2022-11-03T00:43:52.355Z,98338.63
2022-11-03T00:46:21.531Z,98336.50
2022-11-03T00:48:49.510Z,98336.66
2022-11-03T00:51:19.202Z,98334.84
2022-11-03T00:53:48.394Z,98326.00
2022-11-03T00:56:18.474Z,98339.31
2022-11-03T00:58:46.766Z,98337.97
2022-11-03T01:01:18.011Z,98333.78
2022-11-03T01:04:08.665Z,98336.16
2022-11-03T01:06:52.066Z,98322.59
2022-11-03T01:09:20.479Z,98320.44
2022-11-03T01:11:55.110Z,98322.81
2022-11-03T01:14:23.052Z,98316.59
2022-11-03T01:16:52.141Z,98317.13
2022-11-03T01:19:19.821Z,98314.09
2022-11-03T01:21:47.339Z,98299.63
2022-11-03T01:24:14.860Z,98299.25
2022-11-03T01:27:37.367Z,98298.56
2022-11-03T01:30:05.557Z,98300.25
2022-11-03T01:32:34.536Z,98300.56
2022-11-03T01:35:02.309Z,98289.88
2022-11-03T01:37:29.992Z,98289.41
2022-11-03T01:39:57.634Z,98293.72
2022-11-03T01:42:25.322Z,98282.91
2022-11-03T01:44:52.943Z,98283.22
2022-11-03T01:47:25.511Z,98273.88
2022-11-03T01:50:00.265Z,98283.84
2022-11-03T01:52:33.970Z,98273.19
2022-11-03T01:55:05.578Z,98276.91
2022-11-03T01:57:38.498Z,98266.03
2022-11-03T02:00:07.902Z,98266.50
2022-11-03T02:02:35.979Z,98266.69
2022-11-03T02:05:07.259Z,98255.03
2022-11-03T02:11:38.989Z,98249.88
2022-11-03T02:14:06.458Z,98248.50
2022-11-03T02:16:34.185Z,98240.00
2022-11-03T02:19:03.381Z,98233.13
2022-11-03T02:21:41.418Z,98234.00
2022-11-03T02:24:14.842Z,98234.31
2022-11-03T02:26:48.191Z,98227.81
2022-11-03T02:29:17.430Z,98223.31
2022-11-03T02:31:51.573Z,98225.47
2022-11-03T02:34:24.586Z,98217.47
2022-11-03T02:36:57.550Z,98218.16
2022-11-03T02:39:29.870Z,98204.84
2022-11-03T02:42:01.535Z,98208.50
2022-11-03T02:44:30.206Z,98211.78
2022-11-03T02:47:01.619Z,98210.41
2022-11-03T02:49:29.390Z,98205.47
2022-11-03T02:52:01.546Z,98200.00
2022-11-03T02:54:34.871Z,98204.16
2022-11-03T02:57:08.858Z,98199.63
2022-11-03T02:59:55.188Z,98188.25
2022-11-03T03:02:28.695Z,98187.22
2022-11-03T03:05:01.815Z,98187.50
2022-11-03T03:07:32.722Z,98179.59
2022-11-03T03:10:03.925Z,98175.91
2022-11-03T03:12:35.946Z,98184.38
2022-11-03T03:15:05.990Z,98177.25
2022-11-03T03:17:39.733Z,98175.75
2022-11-03T03:20:14.162Z,98168.44
2022-11-03T03:22:47.436Z,98175.41
2022-11-03T03:25:22.781Z,98168.91
2022-11-03T03:27:58.293Z,98164.38
2022-11-03T03:30:26.414Z,98159.41
2022-11-03T03:32:57.782Z,98159.56
2022-11-03T03:35:30.748Z,98154.06
2022-11-03T03:38:03.318Z,98152.09
2022-11-03T03:40:35.493Z,98133.06
2022-11-03T03:43:08.189Z,98138.56
2022-11-03T03:45:37.017Z,98145.38
2022-11-03T03:48:05.031Z,98134.72
2022-11-03T03:50:36.324Z,98130.56
2022-11-03T03:53:06.505Z,98134.41
2022-11-03T03:55:37.137Z,98143.72
2022-11-03T03:58:07.906Z,98138.06
2022-11-03T04:00:35.586Z,98133.34
2022-11-03T04:03:03.100Z,98134.69
2022-11-03T04:05:30.622Z,98133.19
2022-11-03T04:07:58.510Z,98131.47
2022-11-03T04:10:26.170Z,98131.84
2022-11-03T04:13:11.609Z,98126.03
2022-11-03T04:15:58.210Z,98129.53
2022-11-03T04:18:43.526Z,98132.03
2022-11-03T04:21:30.978Z,98122.03
2022-11-03T04:24:00.185Z,98123.72
2022-11-03T04:26:28.823Z,98124.84
2022-11-03T04:28:57.123Z,98113.88
2022-11-03T04:31:29.669Z,98109.69
2022-11-03T04:33:57.451Z,98098.22
2022-11-03T04:36:27.023Z,98102.38
2022-11-03T04:38:54.517Z,98098.72
2022-11-03T04:41:24.943Z,98101.06
2022-11-03T04:43:53.661Z,98091.72
2022-11-03T04:46:27.246Z,98096.19
2022-11-03T04:48:55.722Z,98088.59
2022-11-03T04:51:26.112Z,98086.03
2022-11-03T04:53:56.339Z,98079.56
2022-11-03T04:56:25.881Z,98074.09
2022-11-03T04:58:54.217Z,98075.56
2022-11-03T05:01:24.874Z,98074.72
2022-11-03T05:03:55.838Z,98077.25
2022-11-03T05:06:25.209Z,98070.25
2022-11-03T05:08:56.004Z,98060.44
2022-11-03T05:11:30.860Z,98059.41
2022-11-03T05:14:00.331Z,98057.72
2022-11-03T05:16:29.234Z,98049.25
2022-11-03T05:18:58.479Z,98042.84
2022-11-03T05:21:28.476Z,98049.94
2022-11-03T05:23:59.571Z,98037.13
2022-11-03T05:26:31.816Z,98028.66
2022-11-03T05:29:03.111Z,98025.94
2022-11-03T05:31:32.192Z,98018.56
2022-11-03T05:34:02.856Z,98022.66
2022-11-03T05:36:32.776Z,98021.72
2022-11-03T05:39:22.156Z,98016.78
2022-11-03T05:41:49.647Z,98020.47
2022-11-03T05:44:29.892Z,98014.97
2022-11-03T05:47:00.955Z,98009.81
2022-11-03T05:49:32.079Z,98009.47
2022-11-03T05:52:01.503Z,98005.31
2022-11-03T05:54:33.378Z,98001.47
2022-11-03T05:57:02.246Z,97995.34
2022-11-03T05:59:30.220Z,97986.03
2022-11-03T06:02:00.952Z,97982.34
2022-11-03T06:04:33.672Z,97979.19
2022-11-03T06:07:04.045Z,97979.81
2022-11-03T06:09:34.916Z,97980.47
2022-11-03T06:12:06.497Z,97984.66
2022-11-03T06:14:34.730Z,97995.97
2022-11-03T06:17:05.909Z,98005.56
2022-11-03T06:19:39.095Z,97997.63
2022-11-03T06:22:14.868Z,98001.78
2022-11-03T06:24:43.538Z,97997.31
2022-11-03T06:27:15.294Z,97995.66
2022-11-03T06:29:46.727Z,97996.97
2022-11-03T06:32:14.449Z,97988.53
2022-11-03T06:34:46.514Z,97984.84
2022-11-03T06:37:20.823Z,97985.50
2022-11-03T06:39:49.589Z,97990.34
2022-11-03T06:42:23.118Z,97993.84
2022-11-03T06:44:52.467Z,98006.63
2022-11-03T06:47:23.943Z,98006.31
2022-11-03T06:49:54.814Z,97990.84
2022-11-03T06:52:28.011Z,97993.19
2022-11-03T06:55:01.199Z,97991.66
2022-11-03T06:57:31.629Z,97989.34
2022-11-03T07:00:13.354Z,97988.53
2022-11-03T07:03:08.271Z,97990.81
2022-11-03T07:05:38.840Z,97979.41
2022-11-03T07:08:22.215Z,97973.53
2022-11-03T07:10:51.460Z,97972.41
2022-11-03T07:13:23.550Z,97976.91
2022-11-03T07:15:51.879Z,97970.69
2022-11-03T07:18:23.964Z,97965.56
2022-11-03T07:20:54.423Z,97968.56
2022-11-03T07:23:25.527Z,97963.13
2022-11-03T07:25:55.176Z,97960.06
2022-11-03T07:28:35.993Z,97963.75
2022-11-03T07:31:16.504Z,97960.34
2022-11-03T07:33:44.391Z,97958.00
2022-11-03T07:36:17.651Z,97947.25
2022-11-03T07:38:48.910Z,97942.28
2022-11-03T07:41:19.500Z,97930.78
2022-11-03T07:43:54.260Z,97932.59
2022-11-03T07:46:23.017Z,97935.94
2022-11-03T07:48:52.851Z,97923.63
2022-11-03T07:51:25.004Z,97920.47
2022-11-03T07:53:55.894Z,97921.97
2022-11-03T07:56:25.998Z,97922.94
2022-11-03T07:58:56.851Z,97910.31
2022-11-03T08:01:28.171Z,97897.00
2022-11-03T08:03:59.405Z,97893.66
2022-11-03T08:06:28.305Z,97888.00
2022-11-03T08:08:55.657Z,97877.16
2022-11-03T08:11:27.772Z,97883.47
2022-11-03T08:13:57.123Z,97887.00
2022-11-03T08:16:24.691Z,97878.34
2022-11-03T08:18:52.163Z,97875.19
2022-11-03T08:21:19.640Z,97872.81
2022-11-03T08:23:48.471Z,97866.63
2022-11-03T08:26:15.854Z,97864.81
2022-11-03T08:28:43.176Z,97860.63
2022-11-03T08:31:12.930Z,97857.63
2022-11-03T08:33:42.083Z,97845.63
2022-11-03T08:36:10.092Z,97835.06
2022-11-03T08:38:38.012Z,97829.41
2022-11-03T08:41:06.980Z,97833.56
2022-11-03T08:43:34.451Z,97829.38
2022-11-03T08:46:09.782Z,97826.66
2022-11-03T08:48:40.715Z,97815.97
2022-11-03T08:51:10.195Z,97812.41
2022-11-03T08:53:38.410Z,97806.56
2022-11-03T08:56:10.539Z,97803.19
2022-11-03T08:58:40.649Z,97797.94
2022-11-03T09:01:08.181Z,97803.34
2022-11-03T09:03:35.887Z,97801.81
2022-11-03T09:06:03.477Z,97786.06
2022-11-03T09:11:19.754Z,97770.75
2022-11-03T09:13:47.059Z,97771.91
2022-11-03T09:16:14.385Z,97769.22
2022-11-03T09:18:41.721Z,97761.56
2022-11-03T09:21:09.368Z,97756.34
2022-11-03T09:23:36.879Z,97750.94
2022-11-03T09:26:06.161Z,97739.09
2022-11-03T09:28:34.963Z,97736.28
2022-11-03T09:31:02.280Z,97732.06
2022-11-03T09:33:29.624Z,97723.13
2022-11-03T09:35:56.955Z,97716.81
2022-11-03T09:38:24.450Z,97724.00
2022-11-03T09:40:52.016Z,97723.41
2022-11-03T09:43:20.012Z,97725.50
2022-11-03T09:45:48.935Z,97721.34
2022-11-03T09:48:16.649Z,97714.59
2022-11-03T09:50:44.279Z,97717.44
2022-11-03T09:53:13.163Z,97718.81
2022-11-03T09:55:41.236Z,97724.28
2022-11-03T09:58:13.628Z,97709.50
2022-11-03T10:00:41.265Z,97709.75
2022-11-03T10:03:13.220Z,97699.41
2022-11-03T10:05:41.303Z,97695.63
2022-11-03T10:08:21.493Z,97679.06
2022-11-03T10:10:50.524Z,97677.66
2022-11-03T10:13:26.372Z,97665.56
2022-11-03T10:15:54.123Z,97655.09
2022-11-03T10:18:22.991Z,97657.69
2022-11-03T10:20:50.629Z,97654.50
2022-11-03T10:23:18.092Z,97655.38
2022-11-03T10:25:46.402Z,97659.09
2022-11-03T10:28:22.271Z,97659.31
2022-11-03T10:33:52.954Z,97657.25
2022-11-03T10:36:25.552Z,97651.53
2022-11-03T10:38:53.953Z,97651.75
2022-11-03T10:41:22.781Z,97648.59
2022-11-03T10:44:05.631Z,97651.09
2022-11-03T10:46:50.184Z,97635.63
2022-11-03T10:49:21.199Z,97634.94
2022-11-03T10:51:51.161Z,97634.19
2022-11-03T10:54:20.732Z,97624.63
2022-11-03T10:56:49.771Z,97630.63
2022-11-03T10:59:19.435Z,97623.34
2022-11-03T11:01:47.284Z,97622.09
2022-11-03T11:04:17.382Z,97617.75
2022-11-03T11:06:47.022Z,97604.44
2022-11-03T11:09:18.404Z,97592.28
2022-11-03T11:12:00.033Z,97592.56
2022-11-03T11:14:39.244Z,97590.66
2022-11-03T11:17:13.016Z,97599.31
2022-11-03T11:20:21.092Z,97592.22
2022-11-03T11:22:51.242Z,97585.25
2022-11-03T11:25:19.535Z,97585.81
2022-11-03T11:28:19.496Z,97580.13
2022-11-03T11:31:23.347Z,97564.63
2022-11-03T11:33:50.974Z,97544.34
2022-11-03T11:36:24.440Z,97547.41
2022-11-03T11:38:58.978Z,97534.66
2022-11-03T11:41:59.609Z,97533.44
2022-11-03T11:44:49.151Z,97526.19
2022-11-03T11:47:30.241Z,97523.22
2022-11-03T11:50:31.275Z,97538.38
2022-11-03T11:53:01.871Z,97524.56
2022-11-03T11:55:39.250Z,97529.22
2022-11-03T11:58:15.544Z,97526.97
2022-11-03T12:00:53.068Z,97526.81
2022-11-03T12:03:26.462Z,97513.16
2022-11-03T12:05:54.006Z,97517.72
2022-11-03T12:08:28.504Z,97500.25
2022-11-03T12:10:59.166Z,97489.22
2022-11-03T12:13:41.752Z,97485.66
2022-11-03T12:16:09.877Z,97478.41
2022-11-03T12:18:41.684Z,97473.78
2022-11-03T12:21:14.288Z,97458.53
2022-11-03T12:23:43.359Z,97469.13
2022-11-03T12:26:18.522Z,97458.50
2022-11-03T12:28:46.218Z,97445.97
2022-11-03T12:31:13.859Z,97441.69
2022-11-03T12:33:41.359Z,97440.41
2022-11-03T12:36:09.861Z,97431.72
2022-11-03T12:38:37.536Z,97439.97
2022-11-03T12:41:19.504Z,97430.28
2022-11-03T12:43:49.475Z,97421.38
2022-11-03T12:46:17.576Z,97422.47
2022-11-03T12:48:45.078Z,97436.56
2022-11-03T12:51:13.655Z,97441.88
2022-11-03T12:53:41.181Z,97436.34
2022-11-03T12:56:09.878Z,97423.50
2022-11-03T12:58:38.171Z,97411.75
2022-11-03T13:01:07.927Z,97417.50
2022-11-03T13:03:36.950Z,97403.03
2022-11-03T13:06:09.821Z,97391.66
2022-11-03T13:08:37.950Z,97390.63
2022-11-03T13:11:26.071Z,97391.28
2022-11-03T13:13:54.065Z,97381.13
2022-11-03T13:16:23.155Z,97374.97
2022-11-03T13:18:50.644Z,97369.59
2022-11-03T13:21:18.439Z,97366.09
2022-11-03T13:23:46.181Z,97361.75
2022-11-03T13:26:13.647Z,97364.63
2022-11-03T13:28:41.550Z,97363.59
2022-11-03T13:31:09.295Z,97346.47
2022-11-03T13:33:38.104Z,97348.75
2022-11-03T13:36:06.399Z,97340.69
2022-11-03T13:38:34.083Z,97341.03
2022-11-03T13:41:07.246Z,97344.84
2022-11-03T13:43:36.399Z,97331.41
2022-11-03T13:46:05.031Z,97330.16
2022-11-03T13:51:21.742Z,97326.88
2022-11-03T14:04:44.824Z,97309.19
2022-11-03T14:07:13.937Z,97318.47
2022-11-03T14:09:41.976Z,97300.97
2022-11-03T14:12:27.236Z,97294.34
2022-11-03T14:14:54.784Z,97295.59
2022-11-03T14:17:22.246Z,97289.78
2022-11-03T14:19:52.718Z,97289.59
2022-11-03T14:22:23.329Z,97279.28
2022-11-03T14:24:51.505Z,97283.41
2022-11-03T14:27:19.795Z,97286.50
2022-11-03T14:29:49.619Z,97274.34
2022-11-03T14:32:18.313Z,97280.53
2022-11-03T14:34:45.727Z,97266.09
2022-11-03T14:37:13.839Z,97265.69
2022-11-03T14:39:43.031Z,97274.59
2022-11-03T14:42:15.207Z,97270.03
2022-11-03T14:44:44.507Z,97259.91
2022-11-03T14:47:13.654Z,97260.78
2022-11-03T14:49:41.345Z,97261.78
2022-11-03T14:52:08.980Z,97253.94
2022-11-03T14:54:37.034Z,97251.47
2022-11-03T14:57:06.355Z,97239.06
2022-11-03T14:59:34.772Z,97234.34
2022-11-03T15:02:03.327Z,97223.41
2022-11-03T15:04:31.191Z,97213.72
2022-11-03T15:06:58.709Z,97216.97
2022-11-03T15:09:26.177Z,97208.53
2022-11-03T15:11:54.093Z,97209.84
2022-11-03T15:14:22.896Z,97196.81
2022-11-03T15:16:50.371Z,97200.13
2022-11-03T15:19:17.916Z,97190.44
2022-11-03T15:21:45.458Z,97186.31
2022-11-03T15:27:00.386Z,97178.94
2022-11-03T15:29:29.186Z,97167.38
2022-11-03T15:31:56.661Z,97169.44
2022-11-03T15:34:24.228Z,97158.09
2022-11-03T15:36:51.740Z,97150.50
2022-11-03T15:39:19.256Z,97148.84
2022-11-03T15:41:46.721Z,97147.81
2022-11-03T15:44:14.220Z,97145.38
2022-11-03T15:46:43.065Z,97146.78
2022-11-03T15:49:10.550Z,97133.59
2022-11-03T15:51:38.056Z,97139.16
2022-11-03T15:54:05.583Z,97134.66
2022-11-03T15:56:33.063Z,97134.66
2022-11-03T15:59:00.562Z,97129.09
2022-11-03T16:01:28.259Z,97117.75
2022-11-03T16:03:57.195Z,97112.03
2022-11-03T16:06:46.462Z,97116.38
2022-11-03T16:09:12.573Z,97113.03
2022-11-03T16:11:40.070Z,97096.34
2022-11-03T16:14:07.561Z,97108.53
2022-11-03T16:16:35.034Z,97102.75
2022-11-03T16:19:04.231Z,97078.38
2022-11-03T16:21:31.702Z,97085.44
2022-11-03T16:23:59.212Z,97080.03
2022-11-03T16:26:26.738Z,97087.13
2022-11-03T16:28:54.256Z,97083.22
2022-11-03T16:31:21.727Z,97075.56
2022-11-03T16:33:49.189Z,97082.22
2022-11-03T16:36:18.577Z,97081.56
2022-11-03T16:38:46.086Z,97072.66
2022-11-03T16:41:13.770Z,97059.88
2022-11-03T16:43:41.227Z,97059.03
2022-11-03T16:46:08.702Z,97052.50
2022-11-03T16:48:36.162Z,97048.41
2022-11-03T16:51:03.613Z,97036.66
2022-11-03T16:53:32.466Z,97041.19
2022-11-03T16:56:00.015Z,97044.06
2022-11-03T16:58:27.540Z,97042.22
2022-11-03T17:00:55.197Z,97037.47
2022-11-03T17:03:22.761Z,97027.38
2022-11-03T17:05:50.280Z,97032.50
2022-11-03T17:08:46.904Z,97025.81
2022-11-03T17:11:06.988Z,97016.72
2022-11-03T17:13:34.500Z,97018.56
2022-11-03T17:16:01.993Z,97011.38
2022-11-03T17:18:29.739Z,97008.22
2022-11-03T17:20:57.391Z,97010.72
2022-11-03T17:23:24.884Z,97018.53
2022-11-03T17:25:52.406Z,97010.72
2022-11-03T17:28:21.316Z,97005.75
2022-11-03T17:30:48.844Z,97001.38
2022-11-03T17:33:19.566Z,96999.56
2022-11-03T17:35:47.647Z,96985.31
2022-11-03T17:38:17.160Z,96980.00
2022-11-03T17:40:46.827Z,96980.16
2022-11-03T17:43:20.315Z,96982.06
2022-11-03T17:45:49.641Z,96973.41
2022-11-03T17:48:17.182Z,96975.84
2022-11-03T17:50:47.468Z,96976.00
2022-11-03T17:53:21.900Z,96958.47
2022-11-03T17:56:08.898Z,96952.63
2022-11-03T17:58:44.846Z,96933.56
2022-11-03T18:01:20.227Z,96921.34
2022-11-03T18:03:47.814Z,96923.81
2022-11-03T18:06:18.876Z,96927.88
2022-11-03T18:08:46.416Z,96926.50
2022-11-03T18:11:30.728Z,96915.22
2022-11-03T18:13:58.412Z,96913.91
2022-11-03T18:16:27.465Z,96907.16
2022-11-03T18:18:55.109Z,96902.88
2022-11-03T18:21:24.196Z,96898.31
2022-11-03T18:23:51.732Z,96890.88
2022-11-03T18:26:20.678Z,96900.16
2022-11-03T18:28:49.169Z,96890.09
2022-11-03T18:31:21.620Z,96885.16
2022-11-03T18:33:50.736Z,96879.53
2022-11-03T18:36:19.546Z,96879.63
2022-11-03T18:38:48.355Z,96864.28
2022-11-03T18:41:39.205Z,96864.72
2022-11-03T18:44:14.061Z,96853.63
2022-11-03T18:46:41.439Z,96850.31
2022-11-03T18:49:10.319Z,96852.31
2022-11-03T18:51:38.303Z,96842.66
2022-11-03T18:54:06.480Z,96832.41
2022-11-03T18:56:37.261Z,96822.91
2022-11-03T18:59:06.071Z,96825.34
2022-11-03T19:01:33.733Z,96825.53
2022-11-03T19:04:01.656Z,96816.72
2022-11-03T19:06:30.509Z,96821.00
2022-11-03T19:09:00.318Z,96818.72
2022-11-03T19:11:28.216Z,96816.44
2022-11-03T19:13:55.937Z,96822.22
2022-11-03T19:16:24.925Z,96821.38
2022-11-03T19:18:52.743Z,96813.28
2022-11-03T19:21:23.346Z,96804.56
2022-11-03T19:23:58.162Z,96806.78
2022-11-03T19:26:30.288Z,96799.19
2022-11-03T19:29:01.272Z,96803.38
2022-11-03T19:31:33.423Z,96793.31
2022-11-03T19:34:01.719Z,96775.03
2022-11-03T19:36:31.208Z,96773.19
2022-11-03T19:39:00.981Z,96772.59
2022-11-03T19:41:46.292Z,96770.69
2022-11-03T19:44:14.539Z,96769.50
2022-11-03T19:46:42.867Z,96763.28
2022-11-03T19:49:14.481Z,96745.75
2022-11-03T19:51:42.181Z,96755.25
2022-11-03T19:54:16.377Z,96756.31
2022-11-03T19:56:43.960Z,96765.69
2022-11-03T19:59:13.294Z,96759.50
2022-11-03T20:01:40.918Z,96766.06
2022-11-03T20:04:09.475Z,96763.81
2022-11-03T20:06:38.098Z,96763.00
2022-11-03T20:09:08.389Z,96768.31
2022-11-03T20:11:37.864Z,96760.25
2022-11-03T20:14:05.732Z,96755.31
2022-11-03T20:16:33.216Z,96759.97
2022-11-03T20:19:00.717Z,96758.06
2022-11-03T20:21:34.223Z,96748.41
2022-11-03T20:24:02.253Z,96740.53
2022-11-03T20:26:30.110Z,96732.59
2022-11-03T20:29:00.117Z,96732.75
2022-11-03T20:31:27.755Z,96734.97
2022-11-03T20:33:55.228Z,96734.16
2022-11-03T20:36:22.730Z,96726.06
2022-11-03T20:38:53.211Z,96726.44
2022-11-03T20:41:20.816Z,96727.47
2022-11-03T20:43:49.591Z,96729.69
2022-11-03T20:46:29.008Z,96738.50
2022-11-03T20:48:57.491Z,96728.59
2022-11-03T20:51:27.733Z,96717.25
2022-11-03T20:53:55.822Z,96715.03
2022-11-03T20:56:25.237Z,96710.06
2022-11-03T20:58:53.517Z,96718.28
2022-11-03T21:01:27.475Z,96742.25
2022-11-03T21:04:00.290Z,96729.91
2022-11-03T21:06:29.943Z,96718.41
2022-11-03T21:08:57.623Z,96714.66
2022-11-03T21:11:40.343Z,96705.97
2022-11-03T21:14:15.357Z,96707.56
2022-11-03T21:17:01.987Z,96710.47
2022-11-03T21:19:49.196Z,96712.88
2022-11-03T21:22:50.210Z,96700.00
2022-11-03T21:25:11.430Z,96696.88
2022-11-03T21:27:41.720Z,96703.09
2022-11-03T21:30:11.645Z,96701.09
2022-11-03T21:32:40.568Z,96694.94
2022-11-03T21:35:08.876Z,96711.06
2022-11-03T21:37:36.376Z,96721.22
2022-11-03T21:40:04.021Z,96700.78
2022-11-03T21:42:49.311Z,96695.47
2022-11-03T21:45:18.620Z,96704.38
2022-11-03T21:48:13.231Z,96707.19
2022-11-03T21:50:40.367Z,96693.84
2022-11-03T21:53:08.304Z,96690.06
2022-11-03T21:55:36.704Z,96683.25
2022-11-03T21:58:04.982Z,96681.59
2022-11-03T22:00:33.104Z,96675.66
2022-11-03T22:03:02.294Z,96673.84
2022-11-03T22:05:30.080Z,96686.38
2022-11-03T22:07:57.587Z,96690.28
2022-11-03T22:10:25.893Z,96703.84
2022-11-03T22:12:53.402Z,96731.34
2022-11-03T22:15:38.454Z,96727.41
2022-11-03T22:18:08.154Z,96715.06
2022-11-03T22:20:55.073Z,96702.22
2022-11-03T22:23:40.315Z,96698.94
2022-11-03T22:26:28.465Z,96702.97
2022-11-03T22:29:12.432Z,96708.31
2022-11-03T22:31:42.634Z,96705.53
2022-11-03T22:34:29.389Z,96690.53
2022-11-03T22:36:56.926Z,96693.94
2022-11-03T22:39:42.309Z,96693.66
2022-11-03T22:42:29.328Z,96679.34
2022-11-03T22:45:14.020Z,96690.44
2022-11-03T22:47:41.511Z,96693.31
2022-11-03T22:50:10.882Z,96695.72
2022-11-03T22:52:38.393Z,96691.56
2022-11-03T22:55:05.390Z,96696.91
2022-11-03T22:57:32.957Z,96696.16
2022-11-03T23:00:00.456Z,96693.16
2022-11-03T23:02:27.961Z,96693.84
2022-11-03T23:04:55.483Z,96687.94
2022-11-03T23:07:29.941Z,96687.66
2022-11-03T23:09:59.113Z,96679.31
2022-11-03T23:12:26.614Z,96696.72
2022-11-03T23:15:11.943Z,96692.84
2022-11-03T23:17:57.278Z,96693.91
2022-11-03T23:20:42.623Z,96697.19
2022-11-03T23:23:31.505Z,96692.72
2022-11-03T23:25:57.978Z,96705.72
2022-11-03T23:28:25.496Z,96702.34
2022-11-03T23:30:53.013Z,96706.41
2022-11-03T23:33:20.471Z,96717.97
2022-11-03T23:35:47.982Z,96718.94
2022-11-03T23:38:16.805Z,96720.63
2022-11-03T23:40:44.314Z,96729.09
2022-11-03T23:43:11.858Z,96722.00
2022-11-03T23:45:56.963Z,96720.53
2022-11-03T23:48:42.745Z,96724.78
2022-11-03T23:51:10.222Z,96732.25
2022-11-03T23:53:39.073Z,96745.59
2022-11-03T23:56:25.242Z,96746.47
2022-11-03T23:58:53.146Z,96744.63
